sensor_id;sensor_type;location;lat;lon;timestamp;temperature;humidity
23467;DHT22;59740;47.696;11.746;2023-12-29T00:01:17;7.10;69.80
23467;DHT22;59740;47.696;11.746;2023-12-29T00:03:45;7.10;70.70
23467;DHT22;59740;47.696;11.746;2023-12-29T00:06:15;7.10;70.20
23467;DHT22;59740;47.696;11.746;2023-12-29T00:08:44;7.10;69.80
23467;DHT22;59740;47.696;11.746;2023-12-29T00:11:17;7.00;70.60
23467;DHT22;59740;47.696;11.746;2023-12-29T00:13:45;7.10;69.90
23467;DHT22;59740;47.696;11.746;2023-12-29T00:16:15;7.10;70.00
23467;DHT22;59740;47.696;11.746;2023-12-29T00:18:43;7.10;70.70
23467;DHT22;59740;47.696;11.746;2023-12-29T00:21:12;7.10;71.00
23467;DHT22;59740;47.696;11.746;2023-12-29T00:23:45;7.00;71.20
23467;DHT22;59740;47.696;11.746;2023-12-29T00:26:15;7.00;71.20
23467;DHT22;59740;47.696;11.746;2023-12-29T00:28:46;7.00;70.80
23467;DHT22;59740;47.696;11.746;2023-12-29T00:31:15;7.00;71.30
23467;DHT22;59740;47.696;11.746;2023-12-29T00:33:44;6.90;71.20
23467;DHT22;59740;47.696;11.746;2023-12-29T00:36:14;6.90;71.40
23467;DHT22;59740;47.696;11.746;2023-12-29T00:38:44;6.90;71.80
23467;DHT22;59740;47.696;11.746;2023-12-29T00:41:13;6.80;72.10
23467;DHT22;59740;47.696;11.746;2023-12-29T00:43:41;6.80;72.40
23467;DHT22;59740;47.696;11.746;2023-12-29T00:46:14;6.80;72.60
23467;DHT22;59740;47.696;11.746;2023-12-29T00:48:42;6.80;72.10
23467;DHT22;59740;47.696;11.746;2023-12-29T00:51:11;6.70;71.40
23467;DHT22;59740;47.696;11.746;2023-12-29T00:53:40;6.70;71.60
23467;DHT22;59740;47.696;11.746;2023-12-29T00:56:11;6.60;72.00
23467;DHT22;59740;47.696;11.746;2023-12-29T00:58:40;6.60;71.60
23467;DHT22;59740;47.696;11.746;2023-12-29T01:01:09;6.60;71.60
23467;DHT22;59740;47.696;11.746;2023-12-29T01:03:39;6.60;71.30
23467;DHT22;59740;47.696;11.746;2023-12-29T01:06:08;6.60;71.70
23467;DHT22;59740;47.696;11.746;2023-12-29T01:08:36;6.50;71.70
23467;DHT22;59740;47.696;11.746;2023-12-29T01:11:05;6.50;71.10
23467;DHT22;59740;47.696;11.746;2023-12-29T01:13:34;6.50;71.50
23467;DHT22;59740;47.696;11.746;2023-12-29T01:16:03;6.40;71.80
23467;DHT22;59740;47.696;11.746;2023-12-29T01:18:32;6.40;71.70
23467;DHT22;59740;47.696;11.746;2023-12-29T01:21:01;6.40;71.60
23467;DHT22;59740;47.696;11.746;2023-12-29T01:23:30;6.40;71.80
23467;DHT22;59740;47.696;11.746;2023-12-29T01:25:58;6.30;72.30
23467;DHT22;59740;47.696;11.746;2023-12-29T01:28:26;6.30;72.30
23467;DHT22;59740;47.696;11.746;2023-12-29T01:30:56;6.30;71.80
23467;DHT22;59740;47.696;11.746;2023-12-29T01:33:25;6.20;71.80
23467;DHT22;59740;47.696;11.746;2023-12-29T01:35:53;6.20;71.30
23467;DHT22;59740;47.696;11.746;2023-12-29T01:38:23;6.30;71.40
23467;DHT22;59740;47.696;11.746;2023-12-29T01:40:51;6.20;71.20
23467;DHT22;59740;47.696;11.746;2023-12-29T01:43:19;6.20;71.40
23467;DHT22;59740;47.696;11.746;2023-12-29T01:45:48;6.20;71.40
23467;DHT22;59740;47.696;11.746;2023-12-29T01:48:26;6.20;71.60
23467;DHT22;59740;47.696;11.746;2023-12-29T01:50:55;6.20;72.70
23467;DHT22;59740;47.696;11.746;2023-12-29T01:53:25;6.10;72.40
23467;DHT22;59740;47.696;11.746;2023-12-29T01:56:09;6.10;71.90
23467;DHT22;59740;47.696;11.746;2023-12-29T01:58:38;6.10;71.50
23467;DHT22;59740;47.696;11.746;2023-12-29T02:01:07;6.10;71.50
23467;DHT22;59740;47.696;11.746;2023-12-29T02:03:37;6.10;71.90
23467;DHT22;59740;47.696;11.746;2023-12-29T02:06:06;6.00;71.80
23467;DHT22;59740;47.696;11.746;2023-12-29T02:08:37;6.00;71.50
23467;DHT22;59740;47.696;11.746;2023-12-29T02:11:05;6.00;71.50
23467;DHT22;59740;47.696;11.746;2023-12-29T02:13:34;5.90;71.70
23467;DHT22;59740;47.696;11.746;2023-12-29T02:16:07;5.90;72.40
23467;DHT22;59740;47.696;11.746;2023-12-29T02:18:39;5.90;72.40
23467;DHT22;59740;47.696;11.746;2023-12-29T02:21:09;5.90;72.50
23467;DHT22;59740;47.696;11.746;2023-12-29T02:23:37;5.80;72.80
23467;DHT22;59740;47.696;11.746;2023-12-29T02:26:14;5.80;72.70
23467;DHT22;59740;47.696;11.746;2023-12-29T02:28:48;5.90;72.40
23467;DHT22;59740;47.696;11.746;2023-12-29T02:31:20;5.80;72.40
23467;DHT22;59740;47.696;11.746;2023-12-29T02:33:53;5.80;72.80
23467;DHT22;59740;47.696;11.746;2023-12-29T02:36:22;5.70;72.90
23467;DHT22;59740;47.696;11.746;2023-12-29T02:38:52;5.70;73.00
23467;DHT22;59740;47.696;11.746;2023-12-29T02:41:21;5.70;73.90
23467;DHT22;59740;47.696;11.746;2023-12-29T02:43:51;5.70;73.30
23467;DHT22;59740;47.696;11.746;2023-12-29T02:46:20;5.80;73.40
23467;DHT22;59740;47.696;11.746;2023-12-29T02:48:49;5.70;73.20
23467;DHT22;59740;47.696;11.746;2023-12-29T02:51:18;5.70;72.90
23467;DHT22;59740;47.696;11.746;2023-12-29T02:53:46;5.80;72.60
23467;DHT22;59740;47.696;11.746;2023-12-29T02:56:16;5.90;72.30
23467;DHT22;59740;47.696;11.746;2023-12-29T02:58:46;5.90;71.70
23467;DHT22;59740;47.696;11.746;2023-12-29T03:01:15;5.90;71.60
23467;DHT22;59740;47.696;11.746;2023-12-29T03:03:43;6.10;71.30
23467;DHT22;59740;47.696;11.746;2023-12-29T03:06:12;6.10;71.40
23467;DHT22;59740;47.696;11.746;2023-12-29T03:08:40;6.20;70.60
23467;DHT22;59740;47.696;11.746;2023-12-29T03:11:09;6.50;69.50
23467;DHT22;59740;47.696;11.746;2023-12-29T03:13:37;6.60;69.40
23467;DHT22;59740;47.696;11.746;2023-12-29T03:16:07;6.70;69.00
23467;DHT22;59740;47.696;11.746;2023-12-29T03:18:36;6.70;69.40
23467;DHT22;59740;47.696;11.746;2023-12-29T03:21:07;6.60;69.30
23467;DHT22;59740;47.696;11.746;2023-12-29T03:23:36;6.60;69.70
23467;DHT22;59740;47.696;11.746;2023-12-29T03:26:04;6.50;69.90
23467;DHT22;59740;47.696;11.746;2023-12-29T03:28:33;6.50;70.90
23467;DHT22;59740;47.696;11.746;2023-12-29T03:31:01;6.50;69.90
23467;DHT22;59740;47.696;11.746;2023-12-29T03:33:31;6.60;70.20
23467;DHT22;59740;47.696;11.746;2023-12-29T03:36:00;6.60;69.60
23467;DHT22;59740;47.696;11.746;2023-12-29T03:38:28;6.40;70.10
23467;DHT22;59740;47.696;11.746;2023-12-29T03:40:57;6.40;69.80
23467;DHT22;59740;47.696;11.746;2023-12-29T03:43:25;6.40;69.80
23467;DHT22;59740;47.696;11.746;2023-12-29T03:45:54;6.50;69.50
23467;DHT22;59740;47.696;11.746;2023-12-29T03:48:23;6.50;69.30
23467;DHT22;59740;47.696;11.746;2023-12-29T03:50:53;6.40;69.80
23467;DHT22;59740;47.696;11.746;2023-12-29T03:53:23;6.40;70.80
23467;DHT22;59740;47.696;11.746;2023-12-29T03:55:51;6.50;69.60
23467;DHT22;59740;47.696;11.746;2023-12-29T03:58:20;6.40;69.10
23467;DHT22;59740;47.696;11.746;2023-12-29T04:00:48;6.40;69.00
23467;DHT22;59740;47.696;11.746;2023-12-29T04:03:17;6.50;69.00
23467;DHT22;59740;47.696;11.746;2023-12-29T04:05:45;6.50;69.90
23467;DHT22;59740;47.696;11.746;2023-12-29T04:08:15;6.40;70.70
23467;DHT22;59740;47.696;11.746;2023-12-29T04:10:44;6.40;71.10
23467;DHT22;59740;47.696;11.746;2023-12-29T04:13:13;6.40;71.00
23467;DHT22;59740;47.696;11.746;2023-12-29T04:15:42;6.50;72.10
23467;DHT22;59740;47.696;11.746;2023-12-29T04:18:10;6.40;72.00
23467;DHT22;59740;47.696;11.746;2023-12-29T04:20:39;6.40;72.10
23467;DHT22;59740;47.696;11.746;2023-12-29T04:23:08;6.40;72.30
23467;DHT22;59740;47.696;11.746;2023-12-29T04:25:38;6.40;72.30
23467;DHT22;59740;47.696;11.746;2023-12-29T04:28:07;6.40;72.20
23467;DHT22;59740;47.696;11.746;2023-12-29T04:30:36;6.40;72.00
23467;DHT22;59740;47.696;11.746;2023-12-29T04:33:04;6.40;71.50
23467;DHT22;59740;47.696;11.746;2023-12-29T04:35:33;6.40;71.30
23467;DHT22;59740;47.696;11.746;2023-12-29T04:38:02;6.40;71.90
23467;DHT22;59740;47.696;11.746;2023-12-29T04:40:30;6.40;71.50
23467;DHT22;59740;47.696;11.746;2023-12-29T04:43:01;6.40;71.00
23467;DHT22;59740;47.696;11.746;2023-12-29T04:45:30;6.50;70.80
23467;DHT22;59740;47.696;11.746;2023-12-29T04:47:58;6.40;70.40
23467;DHT22;59740;47.696;11.746;2023-12-29T04:50:27;6.50;70.50
23467;DHT22;59740;47.696;11.746;2023-12-29T04:52:55;6.50;71.10
23467;DHT22;59740;47.696;11.746;2023-12-29T04:55:24;6.40;72.30
23467;DHT22;59740;47.696;11.746;2023-12-29T04:57:52;6.40;72.10
23467;DHT22;59740;47.696;11.746;2023-12-29T05:00:22;6.40;72.70
23467;DHT22;59740;47.696;11.746;2023-12-29T05:02:50;6.40;72.60
23467;DHT22;59740;47.696;11.746;2023-12-29T05:05:19;6.40;71.50
23467;DHT22;59740;47.696;11.746;2023-12-29T05:07:47;6.40;71.10
23467;DHT22;59740;47.696;11.746;2023-12-29T05:10:16;6.40;72.40
23467;DHT22;59740;47.696;11.746;2023-12-29T05:12:44;6.40;72.80
23467;DHT22;59740;47.696;11.746;2023-12-29T05:15:13;6.30;72.80
23467;DHT22;59740;47.696;11.746;2023-12-29T05:17:43;6.20;73.40
23467;DHT22;59740;47.696;11.746;2023-12-29T05:20:11;6.20;73.40
23467;DHT22;59740;47.696;11.746;2023-12-29T05:22:40;6.20;72.90
23467;DHT22;59740;47.696;11.746;2023-12-29T05:25:09;6.20;73.10
23467;DHT22;59740;47.696;11.746;2023-12-29T05:27:37;6.10;72.80
23467;DHT22;59740;47.696;11.746;2023-12-29T05:30:06;6.20;73.50
23467;DHT22;59740;47.696;11.746;2023-12-29T05:32:35;6.10;71.90
23467;DHT22;59740;47.696;11.746;2023-12-29T05:35:06;6.20;72.50
23467;DHT22;59740;47.696;11.746;2023-12-29T05:37:34;6.10;73.10
23467;DHT22;59740;47.696;11.746;2023-12-29T05:40:03;6.10;73.30
23467;DHT22;59740;47.696;11.746;2023-12-29T05:42:32;6.10;73.60
23467;DHT22;59740;47.696;11.746;2023-12-29T05:45:00;6.10;73.60
23467;DHT22;59740;47.696;11.746;2023-12-29T05:47:29;6.00;73.90
23467;DHT22;59740;47.696;11.746;2023-12-29T05:49:58;6.00;74.40
23467;DHT22;59740;47.696;11.746;2023-12-29T05:52:28;6.00;73.10
23467;DHT22;59740;47.696;11.746;2023-12-29T05:54:57;6.00;73.60
23467;DHT22;59740;47.696;11.746;2023-12-29T05:57:25;6.00;74.20
23467;DHT22;59740;47.696;11.746;2023-12-29T05:59:54;6.00;74.20
23467;DHT22;59740;47.696;11.746;2023-12-29T06:02:22;6.00;74.40
23467;DHT22;59740;47.696;11.746;2023-12-29T06:04:51;6.00;74.40
23467;DHT22;59740;47.696;11.746;2023-12-29T06:07:19;5.90;74.50
23467;DHT22;59740;47.696;11.746;2023-12-29T06:09:49;5.90;74.90
23467;DHT22;59740;47.696;11.746;2023-12-29T06:12:17;5.90;75.20
23467;DHT22;59740;47.696;11.746;2023-12-29T06:14:46;5.90;75.10
23467;DHT22;59740;47.696;11.746;2023-12-29T06:17:14;5.90;75.10
23467;DHT22;59740;47.696;11.746;2023-12-29T06:19:43;5.90;75.10
23467;DHT22;59740;47.696;11.746;2023-12-29T06:22:12;5.80;75.40
23467;DHT22;59740;47.696;11.746;2023-12-29T06:24:41;5.90;74.30
23467;DHT22;59740;47.696;11.746;2023-12-29T06:27:11;5.90;74.30
23467;DHT22;59740;47.696;11.746;2023-12-29T06:29:41;5.90;74.60
23467;DHT22;59740;47.696;11.746;2023-12-29T06:32:09;5.90;74.10
23467;DHT22;59740;47.696;11.746;2023-12-29T06:34:38;5.90;74.00
23467;DHT22;59740;47.696;11.746;2023-12-29T06:37:06;6.00;73.80
23467;DHT22;59740;47.696;11.746;2023-12-29T06:39:35;6.00;74.10
23467;DHT22;59740;47.696;11.746;2023-12-29T06:42:04;6.00;74.80
23467;DHT22;59740;47.696;11.746;2023-12-29T06:44:34;6.00;73.80
23467;DHT22;59740;47.696;11.746;2023-12-29T06:47:02;6.10;73.40
23467;DHT22;59740;47.696;11.746;2023-12-29T06:49:34;6.10;74.10
23467;DHT22;59740;47.696;11.746;2023-12-29T06:52:03;6.10;75.20
23467;DHT22;59740;47.696;11.746;2023-12-29T06:54:33;6.10;74.00
23467;DHT22;59740;47.696;11.746;2023-12-29T06:57:03;6.10;72.40
23467;DHT22;59740;47.696;11.746;2023-12-29T06:59:33;6.10;72.10
23467;DHT22;59740;47.696;11.746;2023-12-29T07:02:03;6.10;73.00
23467;DHT22;59740;47.696;11.746;2023-12-29T07:04:31;6.10;72.10
23467;DHT22;59740;47.696;11.746;2023-12-29T07:07:00;6.20;72.20
23467;DHT22;59740;47.696;11.746;2023-12-29T07:09:29;6.10;71.70
23467;DHT22;59740;47.696;11.746;2023-12-29T07:11:58;6.10;72.50
23467;DHT22;59740;47.696;11.746;2023-12-29T07:14:26;6.20;72.00
23467;DHT22;59740;47.696;11.746;2023-12-29T07:16:56;6.20;72.10
23467;DHT22;59740;47.696;11.746;2023-12-29T07:19:25;6.30;72.30
23467;DHT22;59740;47.696;11.746;2023-12-29T07:21:54;6.30;71.10
23467;DHT22;59740;47.696;11.746;2023-12-29T07:24:23;6.30;71.80
23467;DHT22;59740;47.696;11.746;2023-12-29T07:26:52;6.30;72.00
23467;DHT22;59740;47.696;11.746;2023-12-29T07:29:20;6.20;72.40
23467;DHT22;59740;47.696;11.746;2023-12-29T07:31:48;6.30;72.70
23467;DHT22;59740;47.696;11.746;2023-12-29T07:34:18;6.30;72.10
23467;DHT22;59740;47.696;11.746;2023-12-29T07:36:47;6.20;72.20
23467;DHT22;59740;47.696;11.746;2023-12-29T07:39:15;6.30;72.10
23467;DHT22;59740;47.696;11.746;2023-12-29T07:41:44;6.30;71.90
23467;DHT22;59740;47.696;11.746;2023-12-29T07:44:13;6.30;72.00
23467;DHT22;59740;47.696;11.746;2023-12-29T07:46:41;6.40;71.60
23467;DHT22;59740;47.696;11.746;2023-12-29T07:49:09;6.30;71.90
23467;DHT22;59740;47.696;11.746;2023-12-29T07:51:41;6.30;72.50
23467;DHT22;59740;47.696;11.746;2023-12-29T07:54:10;6.30;72.30
23467;DHT22;59740;47.696;11.746;2023-12-29T07:56:38;6.30;72.00
23467;DHT22;59740;47.696;11.746;2023-12-29T07:59:07;6.30;72.70
23467;DHT22;59740;47.696;11.746;2023-12-29T08:01:35;6.30;73.20
23467;DHT22;59740;47.696;11.746;2023-12-29T08:04:05;6.30;73.00
23467;DHT22;59740;47.696;11.746;2023-12-29T08:06:37;6.30;73.00
23467;DHT22;59740;47.696;11.746;2023-12-29T08:09:07;6.40;72.90
23467;DHT22;59740;47.696;11.746;2023-12-29T08:11:35;6.40;73.10
23467;DHT22;59740;47.696;11.746;2023-12-29T08:14:03;6.40;73.20
23467;DHT22;59740;47.696;11.746;2023-12-29T08:16:34;6.30;73.90
23467;DHT22;59740;47.696;11.746;2023-12-29T08:19:05;6.20;73.30
23467;DHT22;59740;47.696;11.746;2023-12-29T08:21:34;6.30;73.30
23467;DHT22;59740;47.696;11.746;2023-12-29T08:24:03;6.40;73.30
23467;DHT22;59740;47.696;11.746;2023-12-29T08:26:43;6.50;72.70
23467;DHT22;59740;47.696;11.746;2023-12-29T08:29:12;6.40;72.40
23467;DHT22;59740;47.696;11.746;2023-12-29T08:31:41;6.40;72.50
23467;DHT22;59740;47.696;11.746;2023-12-29T08:34:10;6.50;71.90
23467;DHT22;59740;47.696;11.746;2023-12-29T08:36:39;6.50;72.00
23467;DHT22;59740;47.696;11.746;2023-12-29T08:39:08;6.70;72.00
23467;DHT22;59740;47.696;11.746;2023-12-29T08:41:37;6.60;71.80
23467;DHT22;59740;47.696;11.746;2023-12-29T08:44:06;6.70;72.00
23467;DHT22;59740;47.696;11.746;2023-12-29T08:46:34;6.70;71.30
23467;DHT22;59740;47.696;11.746;2023-12-29T08:49:03;6.60;71.90
23467;DHT22;59740;47.696;11.746;2023-12-29T08:51:31;6.70;72.10
23467;DHT22;59740;47.696;11.746;2023-12-29T08:54:00;6.80;72.60
23467;DHT22;59740;47.696;11.746;2023-12-29T08:56:29;6.80;72.70
23467;DHT22;59740;47.696;11.746;2023-12-29T08:58:58;6.90;71.70
23467;DHT22;59740;47.696;11.746;2023-12-29T09:01:27;6.80;72.10
23467;DHT22;59740;47.696;11.746;2023-12-29T09:03:55;7.00;71.10
23467;DHT22;59740;47.696;11.746;2023-12-29T09:06:24;7.00;70.70
23467;DHT22;59740;47.696;11.746;2023-12-29T09:08:52;7.10;71.00
23467;DHT22;59740;47.696;11.746;2023-12-29T09:11:21;7.20;71.70
23467;DHT22;59740;47.696;11.746;2023-12-29T09:13:49;7.20;69.90
23467;DHT22;59740;47.696;11.746;2023-12-29T09:16:19;7.20;70.40
23467;DHT22;59740;47.696;11.746;2023-12-29T09:18:48;7.30;69.90
23467;DHT22;59740;47.696;11.746;2023-12-29T09:21:16;7.40;70.30
23467;DHT22;59740;47.696;11.746;2023-12-29T09:23:44;7.50;70.30
23467;DHT22;59740;47.696;11.746;2023-12-29T09:26:16;7.50;70.20
23467;DHT22;59740;47.696;11.746;2023-12-29T09:28:44;7.40;70.00
23467;DHT22;59740;47.696;11.746;2023-12-29T09:31:13;7.40;70.30
23467;DHT22;59740;47.696;11.746;2023-12-29T09:33:43;7.30;70.70
23467;DHT22;59740;47.696;11.746;2023-12-29T09:36:12;7.40;70.30
23467;DHT22;59740;47.696;11.746;2023-12-29T09:38:40;7.50;69.90
23467;DHT22;59740;47.696;11.746;2023-12-29T09:41:14;7.70;69.50
23467;DHT22;59740;47.696;11.746;2023-12-29T09:43:44;7.80;69.10
23467;DHT22;59740;47.696;11.746;2023-12-29T09:46:16;7.80;69.20
23467;DHT22;59740;47.696;11.746;2023-12-29T09:48:47;7.80;69.10
23467;DHT22;59740;47.696;11.746;2023-12-29T09:51:16;7.90;68.80
23467;DHT22;59740;47.696;11.746;2023-12-29T09:53:50;8.00;68.60
23467;DHT22;59740;47.696;11.746;2023-12-29T09:56:19;8.00;68.90
23467;DHT22;59740;47.696;11.746;2023-12-29T09:58:48;8.00;69.10
23467;DHT22;59740;47.696;11.746;2023-12-29T10:01:17;8.10;69.20
23467;DHT22;59740;47.696;11.746;2023-12-29T10:03:48;8.10;69.20
23467;DHT22;59740;47.696;11.746;2023-12-29T10:06:20;8.10;69.10
23467;DHT22;59740;47.696;11.746;2023-12-29T10:08:49;8.20;69.30
23467;DHT22;59740;47.696;11.746;2023-12-29T10:11:21;8.20;69.20
23467;DHT22;59740;47.696;11.746;2023-12-29T10:13:53;8.20;69.40
23467;DHT22;59740;47.696;11.746;2023-12-29T10:16:28;8.30;70.00
23467;DHT22;59740;47.696;11.746;2023-12-29T10:19:05;8.40;70.10
23467;DHT22;59740;47.696;11.746;2023-12-29T10:21:41;8.50;69.80
23467;DHT22;59740;47.696;11.746;2023-12-29T10:24:17;8.50;69.40
23467;DHT22;59740;47.696;11.746;2023-12-29T10:26:46;8.60;69.00
23467;DHT22;59740;47.696;11.746;2023-12-29T10:29:15;8.70;68.60
23467;DHT22;59740;47.696;11.746;2023-12-29T10:31:46;8.70;69.30
23467;DHT22;59740;47.696;11.746;2023-12-29T10:34:20;8.80;69.10
23467;DHT22;59740;47.696;11.746;2023-12-29T10:36:49;8.80;68.60
23467;DHT22;59740;47.696;11.746;2023-12-29T10:39:17;9.00;68.10
23467;DHT22;59740;47.696;11.746;2023-12-29T10:41:46;9.00;67.60
23467;DHT22;59740;47.696;11.746;2023-12-29T10:44:14;9.10;68.40
23467;DHT22;59740;47.696;11.746;2023-12-29T10:46:43;9.00;68.80
23467;DHT22;59740;47.696;11.746;2023-12-29T10:49:12;9.10;69.10
23467;DHT22;59740;47.696;11.746;2023-12-29T10:51:42;9.20;69.40
23467;DHT22;59740;47.696;11.746;2023-12-29T10:54:19;9.20;69.70
23467;DHT22;59740;47.696;11.746;2023-12-29T10:57:00;9.40;68.60
23467;DHT22;59740;47.696;11.746;2023-12-29T10:59:29;9.40;69.30
23467;DHT22;59740;47.696;11.746;2023-12-29T11:02:01;9.40;70.10
23467;DHT22;59740;47.696;11.746;2023-12-29T11:04:33;9.50;69.90
23467;DHT22;59740;47.696;11.746;2023-12-29T11:07:03;9.60;68.60
23467;DHT22;59740;47.696;11.746;2023-12-29T11:09:33;9.70;68.40
23467;DHT22;59740;47.696;11.746;2023-12-29T11:12:03;9.80;68.20
23467;DHT22;59740;47.696;11.746;2023-12-29T11:14:32;9.90;67.60
23467;DHT22;59740;47.696;11.746;2023-12-29T11:17:01;9.90;67.50
23467;DHT22;59740;47.696;11.746;2023-12-29T11:19:31;10.00;67.60
23467;DHT22;59740;47.696;11.746;2023-12-29T11:22:00;10.10;67.20
23467;DHT22;59740;47.696;11.746;2023-12-29T11:24:32;10.10;66.90
23467;DHT22;59740;47.696;11.746;2023-12-29T11:27:10;10.30;66.10
23467;DHT22;59740;47.696;11.746;2023-12-29T11:29:41;10.30;66.20
23467;DHT22;59740;47.696;11.746;2023-12-29T11:32:14;10.30;66.80
23467;DHT22;59740;47.696;11.746;2023-12-29T11:34:48;10.40;66.70
23467;DHT22;59740;47.696;11.746;2023-12-29T11:37:25;10.40;66.10
23467;DHT22;59740;47.696;11.746;2023-12-29T11:40:10;10.50;66.80
23467;DHT22;59740;47.696;11.746;2023-12-29T11:42:44;10.60;66.90
23467;DHT22;59740;47.696;11.746;2023-12-29T11:45:28;10.70;66.60
23467;DHT22;59740;47.696;11.746;2023-12-29T11:47:57;10.70;66.20
23467;DHT22;59740;47.696;11.746;2023-12-29T11:50:30;10.70;67.30
23467;DHT22;59740;47.696;11.746;2023-12-29T11:53:00;10.70;66.70
23467;DHT22;59740;47.696;11.746;2023-12-29T11:55:33;10.80;66.80
23467;DHT22;59740;47.696;11.746;2023-12-29T11:58:03;10.90;66.90
23467;DHT22;59740;47.696;11.746;2023-12-29T12:00:43;11.00;66.70
23467;DHT22;59740;47.696;11.746;2023-12-29T12:03:24;11.10;66.00
23467;DHT22;59740;47.696;11.746;2023-12-29T12:05:54;11.20;65.80
23467;DHT22;59740;47.696;11.746;2023-12-29T12:08:31;11.30;65.00
23467;DHT22;59740;47.696;11.746;2023-12-29T12:14:50;11.50;67.60
23467;DHT22;59740;47.696;11.746;2023-12-29T12:17:30;11.60;67.10
23467;DHT22;59740;47.696;11.746;2023-12-29T12:20:06;11.70;67.70
23467;DHT22;59740;47.696;11.746;2023-12-29T12:22:36;11.70;67.90
23467;DHT22;59740;47.696;11.746;2023-12-29T12:25:06;11.80;67.90
23467;DHT22;59740;47.696;11.746;2023-12-29T12:27:37;11.90;67.50
23467;DHT22;59740;47.696;11.746;2023-12-29T12:30:09;11.80;66.20
23467;DHT22;59740;47.696;11.746;2023-12-29T12:32:38;11.70;66.30
23467;DHT22;59740;47.696;11.746;2023-12-29T12:35:13;11.70;66.20
23467;DHT22;59740;47.696;11.746;2023-12-29T12:37:46;11.70;66.80
23467;DHT22;59740;47.696;11.746;2023-12-29T12:40:25;11.70;66.80
23467;DHT22;59740;47.696;11.746;2023-12-29T12:42:54;11.70;66.70
23467;DHT22;59740;47.696;11.746;2023-12-29T12:45:26;11.80;66.70
23467;DHT22;59740;47.696;11.746;2023-12-29T12:48:01;11.80;66.80
23467;DHT22;59740;47.696;11.746;2023-12-29T12:50:30;11.80;67.40
23467;DHT22;59740;47.696;11.746;2023-12-29T12:53:00;11.80;67.20
23467;DHT22;59740;47.696;11.746;2023-12-29T12:55:33;11.80;67.60
23467;DHT22;59740;47.696;11.746;2023-12-29T12:58:02;11.80;67.80
23467;DHT22;59740;47.696;11.746;2023-12-29T13:00:33;11.80;67.60
23467;DHT22;59740;47.696;11.746;2023-12-29T13:03:02;11.80;67.90
23467;DHT22;59740;47.696;11.746;2023-12-29T13:05:31;11.70;68.20
23467;DHT22;59740;47.696;11.746;2023-12-29T13:07:59;11.80;68.30
23467;DHT22;59740;47.696;11.746;2023-12-29T13:10:30;11.80;68.30
23467;DHT22;59740;47.696;11.746;2023-12-29T13:12:59;11.70;68.90
23467;DHT22;59740;47.696;11.746;2023-12-29T13:15:27;11.70;69.00
23467;DHT22;59740;47.696;11.746;2023-12-29T13:17:58;11.70;69.80
23467;DHT22;59740;47.696;11.746;2023-12-29T13:20:27;11.70;70.10
23467;DHT22;59740;47.696;11.746;2023-12-29T13:22:55;11.70;70.50
23467;DHT22;59740;47.696;11.746;2023-12-29T13:25:25;11.60;70.40
23467;DHT22;59740;47.696;11.746;2023-12-29T13:27:55;11.70;70.50
23467;DHT22;59740;47.696;11.746;2023-12-29T13:30:25;11.60;70.60
23467;DHT22;59740;47.696;11.746;2023-12-29T13:32:54;11.60;71.10
23467;DHT22;59740;47.696;11.746;2023-12-29T13:35:32;11.60;71.60
23467;DHT22;59740;47.696;11.746;2023-12-29T13:38:05;11.50;72.00
23467;DHT22;59740;47.696;11.746;2023-12-29T13:40:37;11.50;71.40
23467;DHT22;59740;47.696;11.746;2023-12-29T13:43:08;11.50;71.70
23467;DHT22;59740;47.696;11.746;2023-12-29T13:45:40;11.50;70.90
23467;DHT22;59740;47.696;11.746;2023-12-29T13:48:11;11.50;71.20
23467;DHT22;59740;47.696;11.746;2023-12-29T13:50:46;11.50;71.20
23467;DHT22;59740;47.696;11.746;2023-12-29T13:53:17;11.60;71.30
23467;DHT22;59740;47.696;11.746;2023-12-29T13:55:45;11.50;70.60
23467;DHT22;59740;47.696;11.746;2023-12-29T13:58:15;11.50;71.50
23467;DHT22;59740;47.696;11.746;2023-12-29T14:00:46;11.50;71.90
23467;DHT22;59740;47.696;11.746;2023-12-29T14:03:23;11.50;72.10
23467;DHT22;59740;47.696;11.746;2023-12-29T14:06:00;11.40;72.40
23467;DHT22;59740;47.696;11.746;2023-12-29T14:08:33;11.40;72.50
23467;DHT22;59740;47.696;11.746;2023-12-29T14:11:06;11.40;72.70
23467;DHT22;59740;47.696;11.746;2023-12-29T14:13:41;11.30;72.70
23467;DHT22;59740;47.696;11.746;2023-12-29T14:16:10;11.30;72.50
23467;DHT22;59740;47.696;11.746;2023-12-29T14:18:53;11.30;72.70
23467;DHT22;59740;47.696;11.746;2023-12-29T14:21:26;11.30;71.80
23467;DHT22;59740;47.696;11.746;2023-12-29T14:24:08;11.30;72.30
23467;DHT22;59740;47.696;11.746;2023-12-29T14:26:38;11.40;72.30
23467;DHT22;59740;47.696;11.746;2023-12-29T14:29:08;11.40;72.70
23467;DHT22;59740;47.696;11.746;2023-12-29T14:31:38;11.30;72.90
23467;DHT22;59740;47.696;11.746;2023-12-29T14:34:08;11.20;73.50
23467;DHT22;59740;47.696;11.746;2023-12-29T14:36:40;11.20;73.20
23467;DHT22;59740;47.696;11.746;2023-12-29T14:39:10;11.20;73.90
23467;DHT22;59740;47.696;11.746;2023-12-29T14:41:38;11.20;73.30
23467;DHT22;59740;47.696;11.746;2023-12-29T14:44:07;11.20;73.40
23467;DHT22;59740;47.696;11.746;2023-12-29T14:46:35;11.20;72.90
23467;DHT22;59740;47.696;11.746;2023-12-29T14:49:06;11.10;72.90
23467;DHT22;59740;47.696;11.746;2023-12-29T14:51:35;11.20;72.50
23467;DHT22;59740;47.696;11.746;2023-12-29T14:54:05;11.20;72.40
23467;DHT22;59740;47.696;11.746;2023-12-29T14:56:34;11.10;73.00
23467;DHT22;59740;47.696;11.746;2023-12-29T14:59:02;11.00;72.70
23467;DHT22;59740;47.696;11.746;2023-12-29T15:01:33;10.90;73.90
23467;DHT22;59740;47.696;11.746;2023-12-29T15:04:02;10.80;74.40
23467;DHT22;59740;47.696;11.746;2023-12-29T15:06:31;10.80;74.20
23467;DHT22;59740;47.696;11.746;2023-12-29T15:09:00;10.70;74.50
23467;DHT22;59740;47.696;11.746;2023-12-29T15:11:30;10.70;74.70
23467;DHT22;59740;47.696;11.746;2023-12-29T15:13:58;10.60;74.80
23467;DHT22;59740;47.696;11.746;2023-12-29T15:16:26;10.50;75.50
23467;DHT22;59740;47.696;11.746;2023-12-29T15:18:55;10.40;76.00
23467;DHT22;59740;47.696;11.746;2023-12-29T15:21:23;10.40;76.10
23467;DHT22;59740;47.696;11.746;2023-12-29T15:23:52;10.30;76.30
23467;DHT22;59740;47.696;11.746;2023-12-29T15:26:21;10.30;76.50
23467;DHT22;59740;47.696;11.746;2023-12-29T15:28:51;10.20;76.40
23467;DHT22;59740;47.696;11.746;2023-12-29T15:31:19;10.20;76.40
23467;DHT22;59740;47.696;11.746;2023-12-29T15:33:48;10.10;76.80
23467;DHT22;59740;47.696;11.746;2023-12-29T15:36:16;10.00;77.20
23467;DHT22;59740;47.696;11.746;2023-12-29T15:38:48;9.90;77.60
23467;DHT22;59740;47.696;11.746;2023-12-29T15:41:16;9.80;77.80
23467;DHT22;59740;47.696;11.746;2023-12-29T15:43:44;9.70;78.10
23467;DHT22;59740;47.696;11.746;2023-12-29T15:46:15;9.70;78.20
23467;DHT22;59740;47.696;11.746;2023-12-29T15:48:44;9.60;78.40